sensor_id;sensor_type;location;lat;lon;timestamp;pressure;altitude;pressure_sealevel;temperature;humidity
50636;BME280;36598;46.054;11.130;2022-09-02T04:01:01;99131.09;;;20.72;64.39
50636;BME280;36598;46.054;11.130;2022-09-02T04:03:27;99126.47;;;20.69;64.47
50636;BME280;36598;46.054;11.130;2022-09-02T04:05:52;99125.41;;;20.52;65.62
50636;BME280;36598;46.054;11.130;2022-09-02T04:08:17;99119.00;;;20.52;65.63
50636;BME280;36598;46.054;11.130;2022-09-02T04:10:43;99125.13;;;20.11;67.57
50636;BME280;36598;46.054;11.130;2022-09-02T04:13:08;99134.50;;;19.69;68.44
50636;BME280;36598;46.054;11.130;2022-09-02T04:15:39;99128.28;;;19.89;67.91
50636;BME280;36598;46.054;11.130;2022-09-02T04:18:08;99134.84;;;19.86;67.68
50636;BME280;36598;46.054;11.130;2022-09-02T04:20:33;99128.13;;;19.93;67.71
50636;BME280;36598;46.054;11.130;2022-09-02T04:22:58;99137.31;;;19.93;67.80
50636;BME280;36598;46.054;11.130;2022-09-02T04:25:24;99132.28;;;19.97;67.62
50636;BME280;36598;46.054;11.130;2022-09-02T04:27:49;99131.78;;;19.99;67.83
50636;BME280;36598;46.054;11.130;2022-09-02T04:30:14;99133.88;;;20.13;67.48
50636;BME280;36598;46.054;11.130;2022-09-02T04:32:41;99127.88;;;20.35;66.69
50636;BME280;36598;46.054;11.130;2022-09-02T04:35:06;99132.06;;;20.40;66.82
50636;BME280;36598;46.054;11.130;2022-09-02T04:37:31;99141.75;;;20.39;66.91
50636;BME280;36598;46.054;11.130;2022-09-02T04:39:57;99144.41;;;20.57;66.02
50636;BME280;36598;46.054;11.130;2022-09-02T04:42:22;99137.09;;;20.36;65.94
50636;BME280;36598;46.054;11.130;2022-09-02T04:44:49;99143.53;;;20.12;66.41
50636;BME280;36598;46.054;11.130;2022-09-02T04:47:15;99143.97;;;20.35;66.07
50636;BME280;36598;46.054;11.130;2022-09-02T04:49:40;99149.94;;;20.52;65.69
50636;BME280;36598;46.054;11.130;2022-09-02T04:52:07;99159.03;;;20.61;65.39
50636;BME280;36598;46.054;11.130;2022-09-02T04:54:33;99154.56;;;20.69;65.16
50636;BME280;36598;46.054;11.130;2022-09-02T04:56:58;99162.03;;;20.72;64.67
50636;BME280;36598;46.054;11.130;2022-09-02T04:59:24;99161.75;;;20.70;65.08
50636;BME280;36598;46.054;11.130;2022-09-02T05:01:50;99166.19;;;20.92;64.36
50636;BME280;36598;46.054;11.130;2022-09-02T05:04:15;99161.22;;;21.01;64.29
50636;BME280;36598;46.054;11.130;2022-09-02T05:06:40;99168.31;;;20.67;65.15
50636;BME280;36598;46.054;11.130;2022-09-02T05:09:06;99162.72;;;20.53;65.37
50636;BME280;36598;46.054;11.130;2022-09-02T05:11:32;99161.13;;;20.37;66.11
50636;BME280;36598;46.054;11.130;2022-09-02T05:13:59;99166.63;;;20.46;66.08
50636;BME280;36598;46.054;11.130;2022-09-02T05:16:26;99167.94;;;20.74;65.41
50636;BME280;36598;46.054;11.130;2022-09-02T05:18:52;99163.00;;;20.69;64.91
50636;BME280;36598;46.054;11.130;2022-09-02T05:21:18;99171.25;;;20.58;65.23
50636;BME280;36598;46.054;11.130;2022-09-02T05:23:43;99180.84;;;20.66;64.82
50636;BME280;36598;46.054;11.130;2022-09-02T05:26:10;99173.75;;;20.71;64.69
50636;BME280;36598;46.054;11.130;2022-09-02T05:28:36;99175.69;;;20.80;64.38
50636;BME280;36598;46.054;11.130;2022-09-02T05:31:04;99182.28;;;20.62;64.90
50636;BME280;36598;46.054;11.130;2022-09-02T05:33:30;99170.13;;;20.41;65.98
50636;BME280;36598;46.054;11.130;2022-09-02T05:35:55;99179.75;;;20.49;65.64
50636;BME280;36598;46.054;11.130;2022-09-02T05:38:21;99181.34;;;20.65;65.66
50636;BME280;36598;46.054;11.130;2022-09-02T05:40:46;99188.09;;;20.88;65.06
50636;BME280;36598;46.054;11.130;2022-09-02T05:43:11;99189.03;;;21.14;64.56
50636;BME280;36598;46.054;11.130;2022-09-02T05:45:37;99190.59;;;21.15;64.67
50636;BME280;36598;46.054;11.130;2022-09-02T05:48:03;99186.44;;;21.11;64.52
50636;BME280;36598;46.054;11.130;2022-09-02T05:50:48;99192.75;;;21.20;64.26
50636;BME280;36598;46.054;11.130;2022-09-02T05:53:13;99188.53;;;21.31;64.14
50636;BME280;36598;46.054;11.130;2022-09-02T05:55:39;99189.72;;;21.39;64.06
50636;BME280;36598;46.054;11.130;2022-09-02T05:58:05;99191.00;;;21.08;63.91
50636;BME280;36598;46.054;11.130;2022-09-02T06:00:30;99189.16;;;21.05;64.19
50636;BME280;36598;46.054;11.130;2022-09-02T06:02:55;99196.78;;;21.19;64.24
50636;BME280;36598;46.054;11.130;2022-09-02T06:05:21;99195.06;;;21.22;64.24
50636;BME280;36598;46.054;11.130;2022-09-02T06:07:46;99188.56;;;21.16;63.74
50636;BME280;36598;46.054;11.130;2022-09-02T06:10:12;99196.44;;;21.12;64.09
50636;BME280;36598;46.054;11.130;2022-09-02T06:12:38;99195.28;;;20.89;64.87
50636;BME280;36598;46.054;11.130;2022-09-02T06:15:03;99198.88;;;20.74;64.84
50636;BME280;36598;46.054;11.130;2022-09-02T06:17:29;99201.00;;;20.65;64.63
50636;BME280;36598;46.054;11.130;2022-09-02T06:19:54;99193.94;;;20.69;64.90
50636;BME280;36598;46.054;11.130;2022-09-02T06:22:19;99198.25;;;21.15;63.20
50636;BME280;36598;46.054;11.130;2022-09-02T06:24:45;99195.81;;;21.22;63.16
50636;BME280;36598;46.054;11.130;2022-09-02T06:27:10;99187.59;;;21.34;62.69
50636;BME280;36598;46.054;11.130;2022-09-02T06:29:35;99194.44;;;21.47;62.56
50636;BME280;36598;46.054;11.130;2022-09-02T06:32:01;99191.72;;;21.73;61.04
50636;BME280;36598;46.054;11.130;2022-09-02T06:34:27;99193.41;;;21.65;61.13
50636;BME280;36598;46.054;11.130;2022-09-02T06:36:52;99198.19;;;21.80;60.15
50636;BME280;36598;46.054;11.130;2022-09-02T06:39:19;99202.84;;;21.83;60.13
50636;BME280;36598;46.054;11.130;2022-09-02T06:41:44;99207.63;;;21.56;60.90
50636;BME280;36598;46.054;11.130;2022-09-02T06:44:11;99199.16;;;21.56;60.94
50636;BME280;36598;46.054;11.130;2022-09-02T06:46:38;99201.34;;;21.46;61.13
50636;BME280;36598;46.054;11.130;2022-09-02T06:49:04;99208.22;;;21.31;61.66
50636;BME280;36598;46.054;11.130;2022-09-02T06:51:31;99201.38;;;21.02;63.38
50636;BME280;36598;46.054;11.130;2022-09-02T06:53:57;99201.19;;;20.76;63.63
50636;BME280;36598;46.054;11.130;2022-09-02T06:56:23;99201.97;;;21.06;62.67
50636;BME280;36598;46.054;11.130;2022-09-02T06:58:49;99201.38;;;21.32;62.14
50636;BME280;36598;46.054;11.130;2022-09-02T07:01:18;99199.50;;;21.99;60.20
50636;BME280;36598;46.054;11.130;2022-09-02T07:03:43;99201.19;;;22.84;58.01
50636;BME280;36598;46.054;11.130;2022-09-02T07:06:27;99203.13;;;22.98;56.93
50636;BME280;36598;46.054;11.130;2022-09-02T07:08:53;99203.44;;;23.69;54.91
50636;BME280;36598;46.054;11.130;2022-09-02T07:11:19;99200.59;;;22.74;57.04
50636;BME280;36598;46.054;11.130;2022-09-02T07:13:45;99202.50;;;21.40;60.89
50636;BME280;36598;46.054;11.130;2022-09-02T07:16:10;99200.03;;;22.44;58.39
50636;BME280;36598;46.054;11.130;2022-09-02T07:18:36;99204.47;;;22.10;59.29
50636;BME280;36598;46.054;11.130;2022-09-02T07:21:01;99202.22;;;22.34;58.59
50636;BME280;36598;46.054;11.130;2022-09-02T07:23:27;99196.56;;;23.12;56.30
50636;BME280;36598;46.054;11.130;2022-09-02T07:25:53;99196.97;;;23.26;55.76
50636;BME280;36598;46.054;11.130;2022-09-02T07:28:20;99197.38;;;23.93;53.62
50636;BME280;36598;46.054;11.130;2022-09-02T07:30:45;99195.81;;;24.57;51.97
50636;BME280;36598;46.054;11.130;2022-09-02T07:33:11;99185.38;;;23.61;54.16
50636;BME280;36598;46.054;11.130;2022-09-02T07:35:38;99193.22;;;25.71;48.83
50636;BME280;36598;46.054;11.130;2022-09-02T07:38:03;99192.97;;;27.16;44.59
50636;BME280;36598;46.054;11.130;2022-09-02T07:40:29;99184.09;;;27.80;43.20
50636;BME280;36598;46.054;11.130;2022-09-02T07:42:54;99185.56;;;28.49;41.48
50636;BME280;36598;46.054;11.130;2022-09-02T07:45:19;99186.38;;;29.99;38.48
50636;BME280;36598;46.054;11.130;2022-09-02T07:47:45;99183.06;;;28.20;41.15
50636;BME280;36598;46.054;11.130;2022-09-02T07:50:10;99176.06;;;29.82;38.52
50636;BME280;36598;46.054;11.130;2022-09-02T07:52:37;99170.81;;;31.02;36.72
50636;BME280;36598;46.054;11.130;2022-09-02T07:55:03;99168.66;;;31.37;36.06
50636;BME280;36598;46.054;11.130;2022-09-02T07:57:28;99175.47;;;32.86;33.68
50636;BME280;36598;46.054;11.130;2022-09-02T07:59:54;99164.16;;;32.65;32.88
50636;BME280;36598;46.054;11.130;2022-09-02T08:02:19;99171.25;;;31.84;34.14
50636;BME280;36598;46.054;11.130;2022-09-02T08:04:44;99177.03;;;33.41;32.36
50636;BME280;36598;46.054;11.130;2022-09-02T08:07:10;99168.63;;;32.30;33.94
50636;BME280;36598;46.054;11.130;2022-09-02T08:09:35;99167.72;;;32.43;33.16
50636;BME280;36598;46.054;11.130;2022-09-02T08:12:01;99172.63;;;29.97;37.23
50636;BME280;36598;46.054;11.130;2022-09-02T08:14:27;99164.41;;;31.09;35.18
50636;BME280;36598;46.054;11.130;2022-09-02T08:16:54;99171.53;;;31.65;34.04
50636;BME280;36598;46.054;11.130;2022-09-02T08:19:20;99172.34;;;31.81;34.18
50636;BME280;36598;46.054;11.130;2022-09-02T08:21:45;99174.50;;;31.52;34.63
50636;BME280;36598;46.054;11.130;2022-09-02T08:24:11;99176.63;;;31.88;33.91
50636;BME280;36598;46.054;11.130;2022-09-02T08:26:36;99175.38;;;31.76;33.53
50636;BME280;36598;46.054;11.130;2022-09-02T08:29:02;99172.03;;;31.56;33.78
50636;BME280;36598;46.054;11.130;2022-09-02T08:31:28;99159.91;;;30.25;36.27
50636;BME280;36598;46.054;11.130;2022-09-02T08:33:53;99155.34;;;29.82;37.00
50636;BME280;36598;46.054;11.130;2022-09-02T08:36:18;99162.50;;;27.90;40.42
50636;BME280;36598;46.054;11.130;2022-09-02T08:38:45;99160.69;;;27.68;41.65
50636;BME280;36598;46.054;11.130;2022-09-02T08:41:11;99157.13;;;27.13;42.27
50636;BME280;36598;46.054;11.130;2022-09-02T08:43:38;99154.44;;;26.55;42.34
50636;BME280;36598;46.054;11.130;2022-09-02T08:46:06;99150.84;;;26.90;41.82
50636;BME280;36598;46.054;11.130;2022-09-02T08:51:13;99153.09;;;25.45;43.68
50636;BME280;36598;46.054;11.130;2022-09-02T08:54:01;99149.00;;;24.56;46.50
50636;BME280;36598;46.054;11.130;2022-09-02T08:56:28;99139.94;;;25.59;43.97
50636;BME280;36598;46.054;11.130;2022-09-02T08:58:54;99143.41;;;26.51;42.42
50636;BME280;36598;46.054;11.130;2022-09-02T09:07:19;99141.28;;;27.48;41.53
50636;BME280;36598;46.054;11.130;2022-09-02T09:17:07;99133.38;;;27.10;41.96
50636;BME280;36598;46.054;11.130;2022-09-02T09:19:38;99129.03;;;27.04;42.07
50636;BME280;36598;46.054;11.130;2022-09-02T09:22:09;99136.38;;;27.73;41.04
50636;BME280;36598;46.054;11.130;2022-09-02T09:24:42;99131.06;;;27.82;40.34
50636;BME280;36598;46.054;11.130;2022-09-02T09:27:10;99132.75;;;26.16;44.39
50636;BME280;36598;46.054;11.130;2022-09-02T09:29:36;99131.19;;;25.51;45.86
50636;BME280;36598;46.054;11.130;2022-09-02T09:32:02;99128.66;;;25.42;45.70
50636;BME280;36598;46.054;11.130;2022-09-02T09:37:36;99118.91;;;26.01;44.35
50636;BME280;36598;46.054;11.130;2022-09-02T09:40:00;99115.53;;;26.55;42.34
50636;BME280;36598;46.054;11.130;2022-09-02T09:42:35;99114.75;;;25.38;44.48
50636;BME280;36598;46.054;11.130;2022-09-02T09:45:20;99109.94;;;25.11;44.40
50636;BME280;36598;46.054;11.130;2022-09-02T09:50:33;99112.97;;;24.40;44.60
50636;BME280;36598;46.054;11.130;2022-09-02T09:58:20;99118.22;;;23.82;46.62
50636;BME280;36598;46.054;11.130;2022-09-02T10:00:46;99111.09;;;24.09;46.09
50636;BME280;36598;46.054;11.130;2022-09-02T10:03:17;99113.72;;;23.58;46.59
50636;BME280;36598;46.054;11.130;2022-09-02T10:05:45;99114.81;;;23.66;46.91
50636;BME280;36598;46.054;11.130;2022-09-02T10:10:38;99110.53;;;23.88;46.75
50636;BME280;36598;46.054;11.130;2022-09-02T10:13:18;99106.00;;;24.30;46.31
50636;BME280;36598;46.054;11.130;2022-09-02T10:20:54;99097.59;;;24.80;43.85
50636;BME280;36598;46.054;11.130;2022-09-02T10:31:26;99088.69;;;25.57;41.78
50636;BME280;36598;46.054;11.130;2022-09-02T10:41:43;99081.81;;;25.35;40.13
50636;BME280;36598;46.054;11.130;2022-09-02T10:44:20;99078.31;;;26.89;37.96
50636;BME280;36598;46.054;11.130;2022-09-02T10:51:50;99082.09;;;26.97;36.39
50636;BME280;36598;46.054;11.130;2022-09-02T10:57:05;99059.38;;;29.05;33.71
50636;BME280;36598;46.054;11.130;2022-09-02T10:59:39;99064.31;;;27.89;35.58
50636;BME280;36598;46.054;11.130;2022-09-02T11:07:12;99048.00;;;28.08;35.42
50636;BME280;36598;46.054;11.130;2022-09-02T11:09:40;99049.72;;;28.30;34.42
50636;BME280;36598;46.054;11.130;2022-09-02T11:12:17;99046.53;;;28.39;34.03
50636;BME280;36598;46.054;11.130;2022-09-02T11:17:43;99048.25;;;26.75;36.87
50636;BME280;36598;46.054;11.130;2022-09-02T11:20:13;99047.84;;;26.89;36.45
50636;BME280;36598;46.054;11.130;2022-09-02T11:23:00;99040.47;;;27.30;35.73
50636;BME280;36598;46.054;11.130;2022-09-02T11:25:32;99034.84;;;26.75;36.11
50636;BME280;36598;46.054;11.130;2022-09-02T11:30:26;99032.88;;;26.89;35.88
50636;BME280;36598;46.054;11.130;2022-09-02T11:32:57;99028.09;;;26.78;36.48
50636;BME280;36598;46.054;11.130;2022-09-02T11:35:27;99042.13;;;27.44;36.21
50636;BME280;36598;46.054;11.130;2022-09-02T11:37:58;99036.69;;;27.46;35.67
50636;BME280;36598;46.054;11.130;2022-09-02T11:48:03;99017.94;;;27.37;35.67
50636;BME280;36598;46.054;11.130;2022-09-02T11:50:56;99023.31;;;26.92;36.43
50636;BME280;36598;46.054;11.130;2022-09-02T11:53:26;99018.63;;;26.40;37.85
50636;BME280;36598;46.054;11.130;2022-09-02T11:58:33;99013.16;;;25.70;38.72
50636;BME280;36598;46.054;11.130;2022-09-02T12:01:02;99000.41;;;26.30;38.35
50636;BME280;36598;46.054;11.130;2022-09-02T12:03:29;99005.44;;;26.12;38.37
50636;BME280;36598;46.054;11.130;2022-09-02T12:06:11;98999.38;;;26.27;37.59
50636;BME280;36598;46.054;11.130;2022-09-02T12:11:09;99005.34;;;26.23;37.65
50636;BME280;36598;46.054;11.130;2022-09-02T12:13:54;98989.38;;;26.20;37.90
50636;BME280;36598;46.054;11.130;2022-09-02T12:21:13;98987.47;;;25.98;38.24
50636;BME280;36598;46.054;11.130;2022-09-02T12:26:28;98969.78;;;26.53;37.47
50636;BME280;36598;46.054;11.130;2022-09-02T12:31:40;98972.31;;;26.81;36.85
50636;BME280;36598;46.054;11.130;2022-09-02T12:36:45;98962.56;;;26.76;36.86
50636;BME280;36598;46.054;11.130;2022-09-02T12:42:34;98948.22;;;26.44;37.32
50636;BME280;36598;46.054;11.130;2022-09-02T12:44:35;98948.88;;;26.26;37.59
50636;BME280;36598;46.054;11.130;2022-09-02T12:49:47;98932.03;;;27.07;36.17
50636;BME280;36598;46.054;11.130;2022-09-02T12:57:41;98925.94;;;26.78;36.67
50636;BME280;36598;46.054;11.130;2022-09-02T13:00:11;98928.31;;;27.17;36.22
50636;BME280;36598;46.054;11.130;2022-09-02T13:05:26;98908.41;;;26.99;36.36
50636;BME280;36598;46.054;11.130;2022-09-02T13:20:52;98908.91;;;26.54;37.40
50636;BME280;36598;46.054;11.130;2022-09-02T13:31:22;98891.97;;;26.18;38.31
50636;BME280;36598;46.054;11.130;2022-09-02T13:34:00;98892.16;;;26.26;38.01
50636;BME280;36598;46.054;11.130;2022-09-02T13:36:27;98882.75;;;25.76;39.17
50636;BME280;36598;46.054;11.130;2022-09-02T13:38:54;98882.69;;;25.52;39.71
50636;BME280;36598;46.054;11.130;2022-09-02T13:41:29;98879.50;;;25.61;39.70
50636;BME280;36598;46.054;11.130;2022-09-02T13:44:04;98879.28;;;25.94;38.67
50636;BME280;36598;46.054;11.130;2022-09-02T13:46:29;98877.50;;;26.21;38.28
50636;BME280;36598;46.054;11.130;2022-09-02T13:48:54;98874.41;;;26.19;38.42
50636;BME280;36598;46.054;11.130;2022-09-02T13:51:20;98869.03;;;26.40;38.21
50636;BME280;36598;46.054;11.130;2022-09-02T13:53:45;98871.47;;;26.31;38.46
50636;BME280;36598;46.054;11.130;2022-09-02T13:56:12;98875.72;;;25.88;38.06
50636;BME280;36598;46.054;11.130;2022-09-02T13:58:43;98873.19;;;25.85;38.42
50636;BME280;36598;46.054;11.130;2022-09-02T14:01:30;98872.91;;;25.88;38.22
50636;BME280;36598;46.054;11.130;2022-09-02T14:03:56;98875.44;;;26.22;38.02
50636;BME280;36598;46.054;11.130;2022-09-02T14:06:24;98864.22;;;26.35;38.59
50636;BME280;36598;46.054;11.130;2022-09-02T14:08:55;98852.63;;;26.58;38.31
50636;BME280;36598;46.054;11.130;2022-09-02T14:11:22;98858.47;;;26.65;37.77
50636;BME280;36598;46.054;11.130;2022-09-02T14:13:49;98866.22;;;26.40;38.05
50636;BME280;36598;46.054;11.130;2022-09-02T14:21:58;98843.81;;;26.37;38.42
50636;BME280;36598;46.054;11.130;2022-09-02T14:24:27;98848.06;;;26.74;37.98
50636;BME280;36598;46.054;11.130;2022-09-02T14:26:53;98841.31;;;26.77;37.41
50636;BME280;36598;46.054;11.130;2022-09-02T14:29:20;98841.31;;;26.95;37.41
50636;BME280;36598;46.054;11.130;2022-09-02T14:31:45;98838.84;;;26.43;37.68
50636;BME280;36598;46.054;11.130;2022-09-02T14:36:54;98833.06;;;26.54;37.83
50636;BME280;36598;46.054;11.130;2022-09-02T14:39:20;98841.13;;;26.26;38.59
50636;BME280;36598;46.054;11.130;2022-09-02T14:41:46;98835.13;;;26.29;38.70
50636;BME280;36598;46.054;11.130;2022-09-02T14:46:42;98831.28;;;26.27;38.47
50636;BME280;36598;46.054;11.130;2022-09-02T14:49:09;98833.41;;;26.20;38.89
50636;BME280;36598;46.054;11.130;2022-09-02T14:54:01;98822.84;;;26.45;38.91
50636;BME280;36598;46.054;11.130;2022-09-02T14:56:45;98821.00;;;26.23;38.90
50636;BME280;36598;46.054;11.130;2022-09-02T14:59:11;98814.47;;;26.10;38.75
50636;BME280;36598;46.054;11.130;2022-09-02T15:01:37;98813.88;;;26.17;38.76
50636;BME280;36598;46.054;11.130;2022-09-02T15:04:03;98816.16;;;26.43;38.82
50636;BME280;36598;46.054;11.130;2022-09-02T15:06:28;98818.63;;;25.73;39.67
50636;BME280;36598;46.054;11.130;2022-09-02T15:08:54;98824.31;;;26.03;39.87
50636;BME280;36598;46.054;11.130;2022-09-02T15:11:19;98820.78;;;26.21;39.48
50636;BME280;36598;46.054;11.130;2022-09-02T15:13:45;98815.91;;;26.16;39.52
50636;BME280;36598;46.054;11.130;2022-09-02T15:16:10;98814.38;;;25.91;40.15
50636;BME280;36598;46.054;11.130;2022-09-02T15:18:35;98820.84;;;25.91;40.51
50636;BME280;36598;46.054;11.130;2022-09-02T15:21:01;98811.31;;;25.89;40.55
50636;BME280;36598;46.054;11.130;2022-09-02T15:23:27;98823.91;;;25.93;40.59
50636;BME280;36598;46.054;11.130;2022-09-02T15:25:53;98825.53;;;25.83;40.17
50636;BME280;36598;46.054;11.130;2022-09-02T15:28:18;98818.81;;;26.11;40.18
50636;BME280;36598;46.054;11.130;2022-09-02T15:30:44;98823.19;;;26.12;39.65
50636;BME280;36598;46.054;11.130;2022-09-02T15:33:09;98825.47;;;25.89;39.88
50636;BME280;36598;46.054;11.130;2022-09-02T15:35:34;98828.53;;;25.91;39.96
50636;BME280;36598;46.054;11.130;2022-09-02T15:38:00;98826.56;;;25.50;41.23
50636;BME280;36598;46.054;11.130;2022-09-02T15:40:26;98827.25;;;25.62;41.13
50636;BME280;36598;46.054;11.130;2022-09-02T15:42:52;98837.75;;;25.67;41.33
50636;BME280;36598;46.054;11.130;2022-09-02T15:45:17;98830.50;;;25.71;41.23
50636;BME280;36598;46.054;11.130;2022-09-02T15:47:42;98828.97;;;25.70;41.02
50636;BME280;36598;46.054;11.130;2022-09-02T15:50:07;98830.78;;;25.68;41.20
50636;BME280;36598;46.054;11.130;2022-09-02T15:52:33;98834.53;;;25.52;41.97
50636;BME280;36598;46.054;11.130;2022-09-02T15:54:59;98833.56;;;25.73;41.52
50636;BME280;36598;46.054;11.130;2022-09-02T15:57:24;98832.78;;;25.43;42.49
50636;BME280;36598;46.054;11.130;2022-09-02T15:59:49;98829.63;;;25.52;42.02
50636;BME280;36598;46.054;11.130;2022-09-02T16:02:15;98841.06;;;25.41;42.02
50636;BME280;36598;46.054;11.130;2022-09-02T16:04:41;98841.53;;;25.45;42.88
50636;BME280;36598;46.054;11.130;2022-09-02T16:07:06;98839.53;;;25.40;42.59
50636;BME280;36598;46.054;11.130;2022-09-02T16:09:31;98834.53;;;25.52;42.90
50636;BME280;36598;46.054;11.130;2022-09-02T16:11:57;98837.47;;;25.35;42.76
50636;BME280;36598;46.054;11.130;2022-09-02T16:14:22;98835.56;;;25.13;43.60
50636;BME280;36598;46.054;11.130;2022-09-02T16:16:48;98845.44;;;24.89;44.52
50636;BME280;36598;46.054;11.130;2022-09-02T16:19:14;98850.09;;;24.87;44.70
50636;BME280;36598;46.054;11.130;2022-09-02T16:21:39;98850.34;;;24.83;44.89
50636;BME280;36598;46.054;11.130;2022-09-02T16:24:05;98855.50;;;24.79;44.91
50636;BME280;36598;46.054;11.130;2022-09-02T16:26:41;98853.31;;;24.49;45.54
50636;BME280;36598;46.054;11.130;2022-09-02T16:29:07;98849.47;;;24.47;45.97
50636;BME280;36598;46.054;11.130;2022-09-02T16:31:33;98850.97;;;24.59;45.45
50636;BME280;36598;46.054;11.130;2022-09-02T16:34:06;98856.88;;;24.61;45.58
50636;BME280;36598;46.054;11.130;2022-09-02T16:36:33;98852.84;;;24.45;45.91
50636;BME280;36598;46.054;11.130;2022-09-02T16:38:59;98851.81;;;24.43;46.23
50636;BME280;36598;46.054;11.130;2022-09-02T16:41:29;98865.66;;;24.41;46.41
50636;BME280;36598;46.054;11.130;2022-09-02T16:43:56;98860.81;;;24.41;46.35
50636;BME280;36598;46.054;11.130;2022-09-02T16:46:22;98870.81;;;24.31;47.06
50636;BME280;36598;46.054;11.130;2022-09-02T16:48:48;98869.81;;;24.17;47.11
50636;BME280;36598;46.054;11.130;2022-09-02T16:51:13;98870.34;;;24.10;47.57
50636;BME280;36598;46.054;11.130;2022-09-02T16:53:39;98881.16;;;24.01;47.92
50636;BME280;36598;46.054;11.130;2022-09-02T16:56:04;98876.00;;;24.10;47.73
50636;BME280;36598;46.054;11.130;2022-09-02T16:58:29;98885.25;;;24.16;47.62
50636;BME280;36598;46.054;11.130;2022-09-02T17:00:55;98883.72;;;24.15;47.63
50636;BME280;36598;46.054;11.130;2022-09-02T17:03:20;98885.00;;;24.20;47.81
50636;BME280;36598;46.054;11.130;2022-09-02T17:05:46;98887.78;;;24.26;47.69
50636;BME280;36598;46.054;11.130;2022-09-02T17:08:13;98891.69;;;24.11;47.86
50636;BME280;36598;46.054;11.130;2022-09-02T17:10:39;98891.69;;;23.94;48.01
50636;BME280;36598;46.054;11.130;2022-09-02T17:13:04;98896.03;;;24.01;48.24
50636;BME280;36598;46.054;11.130;2022-09-02T17:15:29;98892.19;;;23.98;48.01
50636;BME280;36598;46.054;11.130;2022-09-02T17:17:55;98896.56;;;23.94;48.10
50636;BME280;36598;46.054;11.130;2022-09-02T17:20:21;98890.91;;;24.05;47.72
50636;BME280;36598;46.054;11.130;2022-09-02T17:22:46;98890.91;;;24.05;48.07
50636;BME280;36598;46.054;11.130;2022-09-02T17:25:12;98893.75;;;23.94;47.92
50636;BME280;36598;46.054;11.130;2022-09-02T17:27:38;98889.63;;;23.89;47.86
50636;BME280;36598;46.054;11.130;2022-09-02T17:30:04;98888.06;;;23.71;48.18
50636;BME280;36598;46.054;11.130;2022-09-02T17:32:29;98886.81;;;23.78;47.84
50636;BME280;36598;46.054;11.130;2022-09-02T17:34:55;98896.06;;;23.90;47.99
50636;BME280;36598;46.054;11.130;2022-09-02T17:37:20;98900.38;;;23.63;48.81
50636;BME280;36598;46.054;11.130;2022-09-02T17:39:48;98899.59;;;23.62;48.65
50636;BME280;36598;46.054;11.130;2022-09-02T17:42:14;98907.81;;;23.60;48.64
50636;BME280;36598;46.054;11.130;2022-09-02T17:44:39;98910.63;;;23.49;48.99
50636;BME280;36598;46.054;11.130;2022-09-02T17:47:10;98916.56;;;23.68;48.64
50636;BME280;36598;46.054;11.130;2022-09-02T17:49:36;98935.03;;;23.63;48.53
50636;BME280;36598;46.054;11.130;2022-09-02T17:52:05;98935.09;;;23.69;48.96
50636;BME280;36598;46.054;11.130;2022-09-02T17:54:32;98934.56;;;23.70;49.47
50636;BME280;36598;46.054;11.130;2022-09-02T17:59:39;98940.75;;;23.86;49.53
50636;BME280;36598;46.054;11.130;2022-09-02T18:10:00;98953.06;;;23.77;50.25
50636;BME280;36598;46.054;11.130;2022-09-02T18:12:26;98950.97;;;23.66;50.21
50636;BME280;36598;46.054;11.130;2022-09-02T18:14:56;98949.66;;;23.62;50.06
50636;BME280;36598;46.054;11.130;2022-09-02T18:27:27;98976.50;;;23.18;51.76
50636;BME280;36598;46.054;11.130;2022-09-02T18:32:31;98973.97;;;23.37;51.03
50636;BME280;36598;46.054;11.130;2022-09-02T18:37:44;98978.56;;;23.29;51.33
50636;BME280;36598;46.054;11.130;2022-09-02T18:42:43;98978.03;;;23.24;50.83
50636;BME280;36598;46.054;11.130;2022-09-02T18:50:22;98981.16;;;23.27;50.17
50636;BME280;36598;46.054;11.130;2022-09-02T18:52:49;98985.44;;;23.11;50.62
50636;BME280;36598;46.054;11.130;2022-09-02T18:55:15;98990.00;;;22.97;50.64
50636;BME280;36598;46.054;11.130;2022-09-02T18:57:44;98987.69;;;22.95;50.37
50636;BME280;36598;46.054;11.130;2022-09-02T19:00:12;98987.19;;;23.03;50.57
50636;BME280;36598;46.054;11.130;2022-09-02T19:05:15;98981.41;;;22.86;52.65
50636;BME280;36598;46.054;11.130;2022-09-02T19:07:41;98985.41;;;23.05;52.79
50636;BME280;36598;46.054;11.130;2022-09-02T19:10:26;98989.22;;;22.96;53.52
50636;BME280;36598;46.054;11.130;2022-09-02T19:12:52;98993.47;;;22.86;53.46
50636;BME280;36598;46.054;11.130;2022-09-02T19:15:19;98993.69;;;22.77;53.44
50636;BME280;36598;46.054;11.130;2022-09-02T19:17:44;99002.50;;;22.21;54.78
50636;BME280;36598;46.054;11.130;2022-09-02T19:20:09;99000.75;;;22.24;54.80
50636;BME280;36598;46.054;11.130;2022-09-02T19:22:36;99007.91;;;22.57;53.93
50636;BME280;36598;46.054;11.130;2022-09-02T19:25:07;99005.88;;;22.25;54.83
50636;BME280;36598;46.054;11.130;2022-09-02T19:27:34;99009.28;;;22.35;54.44
50636;BME280;36598;46.054;11.130;2022-09-02T19:30:04;99011.22;;;22.55;54.11
50636;BME280;36598;46.054;11.130;2022-09-02T19:32:31;99012.78;;;22.56;54.27
50636;BME280;36598;46.054;11.130;2022-09-02T19:34:58;99017.41;;;22.59;54.56
50636;BME280;36598;46.054;11.130;2022-09-02T19:37:25;99017.16;;;22.57;54.53
50636;BME280;36598;46.054;11.130;2022-09-02T19:39:50;99020.47;;;22.56;54.76
50636;BME280;36598;46.054;11.130;2022-09-02T19:42:18;99019.59;;;22.75;54.53
50636;BME280;36598;46.054;11.130;2022-09-02T19:44:44;99016.25;;;22.77;54.62
50636;BME280;36598;46.054;11.130;2022-09-02T19:47:09;99015.56;;;22.19;55.36
50636;BME280;36598;46.054;11.130;2022-09-02T19:49:35;99015.25;;;21.65;56.52